sensor_id;sensor_type;location;lat;lon;timestamp;pressure;altitude;pressure_sealevel;temperature;humidity
56719;BME280;42597;40.636;0.278;2023-03-14T00:00:34;96731.75;;;19.77;51.56
56719;BME280;42597;40.636;0.278;2023-03-14T00:03:00;96736.41;;;18.57;44.19
56719;BME280;42597;40.636;0.278;2023-03-14T00:05:25;96721.75;;;19.09;44.00
56719;BME280;42597;40.636;0.278;2023-03-14T00:07:51;96717.19;;;18.98;50.71
56719;BME280;42597;40.636;0.278;2023-03-14T00:10:16;96696.66;;;18.49;42.27
56719;BME280;42597;40.636;0.278;2023-03-14T00:12:43;96716.41;;;18.30;41.52
56719;BME280;42597;40.636;0.278;2023-03-14T00:15:10;96716.75;;;18.69;45.83
56719;BME280;42597;40.636;0.278;2023-03-14T00:17:37;96710.66;;;19.19;50.10
56719;BME280;42597;40.636;0.278;2023-03-14T00:20:07;96734.44;;;18.23;42.89
56719;BME280;42597;40.636;0.278;2023-03-14T00:22:41;96712.59;;;18.92;49.09
56719;BME280;42597;40.636;0.278;2023-03-14T00:25:09;96748.84;;;19.30;45.65
56719;BME280;42597;40.636;0.278;2023-03-14T00:27:35;96758.63;;;18.66;41.57
56719;BME280;42597;40.636;0.278;2023-03-14T00:30:01;96745.31;;;18.31;50.36
56719;BME280;42597;40.636;0.278;2023-03-14T00:32:27;96769.00;;;18.03;37.74
56719;BME280;42597;40.636;0.278;2023-03-14T00:34:52;96753.75;;;18.47;50.94
56719;BME280;42597;40.636;0.278;2023-03-14T00:37:18;96762.53;;;18.28;49.04
56719;BME280;42597;40.636;0.278;2023-03-14T00:39:43;96794.88;;;17.88;41.41
56719;BME280;42597;40.636;0.278;2023-03-14T00:42:09;96787.84;;;17.90;37.70
56719;BME280;42597;40.636;0.278;2023-03-14T00:44:35;96806.19;;;17.16;37.36
56719;BME280;42597;40.636;0.278;2023-03-14T00:47:00;96783.47;;;18.00;45.09
56719;BME280;42597;40.636;0.278;2023-03-14T00:49:26;96838.63;;;17.84;44.17
56719;BME280;42597;40.636;0.278;2023-03-14T00:51:52;96845.69;;;17.82;38.03
56719;BME280;42597;40.636;0.278;2023-03-14T00:54:20;96804.06;;;18.53;47.53
56719;BME280;42597;40.636;0.278;2023-03-14T00:56:46;96806.03;;;15.82;35.67
56719;BME280;42597;40.636;0.278;2023-03-14T00:59:12;96821.94;;;18.23;40.45
56719;BME280;42597;40.636;0.278;2023-03-14T01:01:38;96784.03;;;19.01;46.89
56719;BME280;42597;40.636;0.278;2023-03-14T01:04:04;96787.38;;;18.44;39.29
56719;BME280;42597;40.636;0.278;2023-03-14T01:06:30;96738.50;;;18.84;51.22
56719;BME280;42597;40.636;0.278;2023-03-14T01:08:56;96785.16;;;18.32;49.29
56719;BME280;42597;40.636;0.278;2023-03-14T01:11:25;96740.69;;;18.96;47.46
56719;BME280;42597;40.636;0.278;2023-03-14T01:13:51;96732.81;;;19.02;50.61
56719;BME280;42597;40.636;0.278;2023-03-14T01:16:18;96796.81;;;18.36;47.78
56719;BME280;42597;40.636;0.278;2023-03-14T01:18:44;96778.19;;;18.61;37.96
56719;BME280;42597;40.636;0.278;2023-03-14T01:21:14;96764.94;;;18.22;37.67
56719;BME280;42597;40.636;0.278;2023-03-14T01:23:41;96768.81;;;17.13;33.75
56719;BME280;42597;40.636;0.278;2023-03-14T01:26:12;96752.19;;;18.46;51.26
56719;BME280;42597;40.636;0.278;2023-03-14T01:28:38;96732.94;;;18.91;38.24
56719;BME280;42597;40.636;0.278;2023-03-14T01:31:09;96747.59;;;18.36;44.21
56719;BME280;42597;40.636;0.278;2023-03-14T01:33:35;96739.22;;;17.60;35.26
56719;BME280;42597;40.636;0.278;2023-03-14T01:36:01;96768.16;;;17.58;34.98
56719;BME280;42597;40.636;0.278;2023-03-14T01:38:31;96729.47;;;18.49;40.80
56719;BME280;42597;40.636;0.278;2023-03-14T01:40:58;96748.56;;;17.03;34.63
56719;BME280;42597;40.636;0.278;2023-03-14T01:43:24;96761.25;;;17.39;39.22
56719;BME280;42597;40.636;0.278;2023-03-14T01:51:25;96751.75;;;16.88;34.79
56719;BME280;42597;40.636;0.278;2023-03-14T01:53:54;96754.75;;;17.78;46.20
56719;BME280;42597;40.636;0.278;2023-03-14T01:56:23;96733.63;;;17.22;41.91
56719;BME280;42597;40.636;0.278;2023-03-14T01:58:50;96765.66;;;17.18;40.13
56719;BME280;42597;40.636;0.278;2023-03-14T02:01:20;96757.13;;;17.09;36.94
56719;BME280;42597;40.636;0.278;2023-03-14T02:03:53;96787.00;;;17.38;36.96
56719;BME280;42597;40.636;0.278;2023-03-14T02:06:21;96762.88;;;17.88;47.12
56719;BME280;42597;40.636;0.278;2023-03-14T02:08:48;96759.47;;;17.07;34.69
56719;BME280;42597;40.636;0.278;2023-03-14T02:11:15;96778.56;;;18.25;45.06
56719;BME280;42597;40.636;0.278;2023-03-14T02:13:42;96786.91;;;17.48;33.93
56719;BME280;42597;40.636;0.278;2023-03-14T02:16:08;96814.22;;;16.00;35.05
56719;BME280;42597;40.636;0.278;2023-03-14T02:18:34;96797.22;;;17.19;38.57
56719;BME280;42597;40.636;0.278;2023-03-14T02:26:09;96836.00;;;16.07;34.18
56719;BME280;42597;40.636;0.278;2023-03-14T02:28:36;96831.31;;;16.61;33.10
56719;BME280;42597;40.636;0.278;2023-03-14T02:31:02;96823.16;;;16.40;40.19
56719;BME280;42597;40.636;0.278;2023-03-14T02:33:28;96830.00;;;17.12;36.66
56719;BME280;42597;40.636;0.278;2023-03-14T02:35:57;96853.16;;;16.11;33.57
56719;BME280;42597;40.636;0.278;2023-03-14T02:41:08;96855.31;;;17.23;46.90
56719;BME280;42597;40.636;0.278;2023-03-14T02:43:33;96847.22;;;17.90;47.19
56719;BME280;42597;40.636;0.278;2023-03-14T02:46:00;96859.34;;;16.69;34.53
56719;BME280;42597;40.636;0.278;2023-03-14T02:48:51;96882.31;;;16.00;39.34
56719;BME280;42597;40.636;0.278;2023-03-14T02:51:18;96826.25;;;16.77;34.21
56719;BME280;42597;40.636;0.278;2023-03-14T02:53:43;96844.06;;;18.85;50.59
56719;BME280;42597;40.636;0.278;2023-03-14T02:56:10;96852.38;;;19.12;43.77
56719;BME280;42597;40.636;0.278;2023-03-14T02:58:36;96861.28;;;17.00;35.14
56719;BME280;42597;40.636;0.278;2023-03-14T03:01:01;96854.69;;;16.62;39.97
56719;BME280;42597;40.636;0.278;2023-03-14T03:03:27;96855.41;;;17.02;43.38
56719;BME280;42597;40.636;0.278;2023-03-14T03:05:54;96837.97;;;17.66;50.34
56719;BME280;42597;40.636;0.278;2023-03-14T03:08:22;96839.22;;;17.47;35.33
56719;BME280;42597;40.636;0.278;2023-03-14T03:10:49;96861.72;;;16.77;38.15
56719;BME280;42597;40.636;0.278;2023-03-14T03:13:15;96852.25;;;17.14;38.35
56719;BME280;42597;40.636;0.278;2023-03-14T03:15:41;96850.63;;;17.27;42.44
56719;BME280;42597;40.636;0.278;2023-03-14T03:18:07;96844.44;;;18.45;49.42
56719;BME280;42597;40.636;0.278;2023-03-14T03:20:33;96846.53;;;16.26;35.43
56719;BME280;42597;40.636;0.278;2023-03-14T03:22:59;96837.47;;;17.85;44.47
56719;BME280;42597;40.636;0.278;2023-03-14T03:25:25;96856.66;;;17.78;49.46
56719;BME280;42597;40.636;0.278;2023-03-14T03:27:50;96847.91;;;18.01;50.06
56719;BME280;42597;40.636;0.278;2023-03-14T03:30:16;96885.66;;;17.50;39.38
56719;BME280;42597;40.636;0.278;2023-03-14T03:32:42;96868.31;;;17.86;43.23
56719;BME280;42597;40.636;0.278;2023-03-14T03:35:07;96853.50;;;17.83;50.59
56719;BME280;42597;40.636;0.278;2023-03-14T03:37:34;96867.38;;;18.55;42.60
56719;BME280;42597;40.636;0.278;2023-03-14T03:39:59;96880.78;;;16.70;37.44
56719;BME280;42597;40.636;0.278;2023-03-14T03:42:29;96881.97;;;16.69;39.43
56719;BME280;42597;40.636;0.278;2023-03-14T03:44:54;96866.22;;;17.34;50.01
56719;BME280;42597;40.636;0.278;2023-03-14T03:47:20;96885.03;;;17.07;39.25
56719;BME280;42597;40.636;0.278;2023-03-14T03:49:45;96873.00;;;16.15;47.58
56719;BME280;42597;40.636;0.278;2023-03-14T03:52:11;96847.91;;;18.91;47.94
56719;BME280;42597;40.636;0.278;2023-03-14T03:54:36;96863.91;;;17.25;45.91
56719;BME280;42597;40.636;0.278;2023-03-14T03:57:02;96889.63;;;17.32;40.53
56719;BME280;42597;40.636;0.278;2023-03-14T03:59:27;96871.69;;;17.23;40.08
56719;BME280;42597;40.636;0.278;2023-03-14T04:01:53;96908.72;;;14.91;39.78
56719;BME280;42597;40.636;0.278;2023-03-14T04:04:18;96894.28;;;15.60;47.03
56719;BME280;42597;40.636;0.278;2023-03-14T04:06:44;96874.25;;;17.63;51.52
56719;BME280;42597;40.636;0.278;2023-03-14T04:09:10;96885.06;;;16.64;40.44
56719;BME280;42597;40.636;0.278;2023-03-14T04:11:36;96868.75;;;17.73;49.89
56719;BME280;42597;40.636;0.278;2023-03-14T04:14:02;96888.09;;;17.16;43.20
56719;BME280;42597;40.636;0.278;2023-03-14T04:16:28;96868.06;;;18.21;48.72
56719;BME280;42597;40.636;0.278;2023-03-14T04:18:53;96916.19;;;15.92;42.00
56719;BME280;42597;40.636;0.278;2023-03-14T04:21:19;96877.31;;;17.83;51.26
56719;BME280;42597;40.636;0.278;2023-03-14T04:23:44;96906.81;;;17.21;45.46
56719;BME280;42597;40.636;0.278;2023-03-14T04:26:10;96901.44;;;16.64;41.33
56719;BME280;42597;40.636;0.278;2023-03-14T04:28:36;96905.06;;;17.78;47.74
56719;BME280;42597;40.636;0.278;2023-03-14T04:31:18;96926.09;;;17.81;44.04
56719;BME280;42597;40.636;0.278;2023-03-14T04:33:44;96911.16;;;16.12;45.29
56719;BME280;42597;40.636;0.278;2023-03-14T04:36:10;96915.28;;;17.52;45.00
56719;BME280;42597;40.636;0.278;2023-03-14T04:38:35;96883.13;;;17.88;44.31
56719;BME280;42597;40.636;0.278;2023-03-14T04:41:01;96904.47;;;17.16;39.11
56719;BME280;42597;40.636;0.278;2023-03-14T04:43:27;96929.91;;;16.77;37.89
56719;BME280;42597;40.636;0.278;2023-03-14T04:45:57;96912.38;;;16.28;42.32
56719;BME280;42597;40.636;0.278;2023-03-14T04:48:23;96895.44;;;18.18;47.89
56719;BME280;42597;40.636;0.278;2023-03-14T04:50:49;96892.97;;;18.34;47.00
56719;BME280;42597;40.636;0.278;2023-03-14T04:53:16;96911.50;;;18.61;48.05
56719;BME280;42597;40.636;0.278;2023-03-14T04:55:42;96935.75;;;17.01;44.86
56719;BME280;42597;40.636;0.278;2023-03-14T04:58:08;96948.56;;;17.22;48.80
56719;BME280;42597;40.636;0.278;2023-03-14T05:00:33;96956.78;;;16.75;42.54
56719;BME280;42597;40.636;0.278;2023-03-14T05:02:59;96918.47;;;17.36;45.78
56719;BME280;42597;40.636;0.278;2023-03-14T05:05:24;96927.16;;;16.99;51.05
56719;BME280;42597;40.636;0.278;2023-03-14T05:07:50;96951.72;;;16.99;40.02
56719;BME280;42597;40.636;0.278;2023-03-14T05:10:16;96918.75;;;13.91;43.16
56719;BME280;42597;40.636;0.278;2023-03-14T05:12:41;96918.44;;;17.40;52.03
56719;BME280;42597;40.636;0.278;2023-03-14T05:15:07;96960.66;;;16.46;39.14
56719;BME280;42597;40.636;0.278;2023-03-14T05:17:34;96956.41;;;17.02;42.54
56719;BME280;42597;40.636;0.278;2023-03-14T05:19:59;96964.00;;;17.75;47.86
56719;BME280;42597;40.636;0.278;2023-03-14T05:22:25;96946.22;;;18.15;49.30
56719;BME280;42597;40.636;0.278;2023-03-14T05:24:51;96954.81;;;16.54;40.02
56719;BME280;42597;40.636;0.278;2023-03-14T05:27:16;96952.47;;;15.26;44.48
56719;BME280;42597;40.636;0.278;2023-03-14T05:29:42;96989.53;;;16.65;50.56
56719;BME280;42597;40.636;0.278;2023-03-14T05:32:07;96989.53;;;17.11;46.14
56719;BME280;42597;40.636;0.278;2023-03-14T05:34:33;96983.25;;;16.25;44.97
56719;BME280;42597;40.636;0.278;2023-03-14T05:36:59;96960.78;;;17.98;49.66
56719;BME280;42597;40.636;0.278;2023-03-14T05:39:24;96975.38;;;17.48;43.62
56719;BME280;42597;40.636;0.278;2023-03-14T05:41:50;97006.25;;;15.44;41.56
56719;BME280;42597;40.636;0.278;2023-03-14T05:44:16;96981.84;;;14.96;42.36
56719;BME280;42597;40.636;0.278;2023-03-14T05:46:42;96997.34;;;16.81;49.57
56719;BME280;42597;40.636;0.278;2023-03-14T05:49:07;97000.28;;;15.93;42.30
56719;BME280;42597;40.636;0.278;2023-03-14T05:51:33;97004.63;;;15.28;42.13
56719;BME280;42597;40.636;0.278;2023-03-14T05:53:58;96988.16;;;15.11;42.41
56719;BME280;42597;40.636;0.278;2023-03-14T05:56:24;96978.25;;;16.77;50.21
56719;BME280;42597;40.636;0.278;2023-03-14T05:58:49;96967.16;;;15.08;42.73
56719;BME280;42597;40.636;0.278;2023-03-14T06:01:15;96970.50;;;18.06;50.09
56719;BME280;42597;40.636;0.278;2023-03-14T06:03:40;97012.75;;;17.91;45.29
56719;BME280;42597;40.636;0.278;2023-03-14T06:06:06;96997.97;;;17.70;49.87
56719;BME280;42597;40.636;0.278;2023-03-14T06:08:32;96978.94;;;17.35;47.13
56719;BME280;42597;40.636;0.278;2023-03-14T06:10:57;96972.31;;;17.36;46.43
56719;BME280;42597;40.636;0.278;2023-03-14T06:13:23;96969.22;;;17.19;46.53
56719;BME280;42597;40.636;0.278;2023-03-14T06:15:49;96999.91;;;15.25;50.89
56719;BME280;42597;40.636;0.278;2023-03-14T06:18:14;96970.81;;;16.99;50.42
56719;BME280;42597;40.636;0.278;2023-03-14T06:20:40;96998.81;;;16.24;50.61
56719;BME280;42597;40.636;0.278;2023-03-14T06:23:07;97016.81;;;17.04;46.17
56719;BME280;42597;40.636;0.278;2023-03-14T06:25:33;96991.44;;;16.28;48.24
56719;BME280;42597;40.636;0.278;2023-03-14T06:27:58;96976.28;;;17.06;41.35
56719;BME280;42597;40.636;0.278;2023-03-14T06:30:24;96990.22;;;17.51;50.72
56719;BME280;42597;40.636;0.278;2023-03-14T06:32:49;96976.50;;;15.76;44.49
56719;BME280;42597;40.636;0.278;2023-03-14T06:35:15;96995.00;;;16.97;50.54
56719;BME280;42597;40.636;0.278;2023-03-14T06:37:41;96979.94;;;17.98;49.40
56719;BME280;42597;40.636;0.278;2023-03-14T06:40:07;97025.31;;;16.31;49.40
56719;BME280;42597;40.636;0.278;2023-03-14T06:42:33;97004.25;;;16.28;41.41
56719;BME280;42597;40.636;0.278;2023-03-14T06:44:58;97015.22;;;16.57;42.26
56719;BME280;42597;40.636;0.278;2023-03-14T06:47:24;97029.38;;;15.71;48.23
56719;BME280;42597;40.636;0.278;2023-03-14T06:49:49;97013.25;;;16.28;45.93
56719;BME280;42597;40.636;0.278;2023-03-14T06:52:15;97045.28;;;16.74;50.30
56719;BME280;42597;40.636;0.278;2023-03-14T06:54:41;97046.44;;;17.38;46.91
56719;BME280;42597;40.636;0.278;2023-03-14T06:57:06;97032.78;;;17.31;49.88
56719;BME280;42597;40.636;0.278;2023-03-14T06:59:32;97063.44;;;16.20;41.65
56719;BME280;42597;40.636;0.278;2023-03-14T07:01:57;97037.16;;;15.73;44.71
56719;BME280;42597;40.636;0.278;2023-03-14T07:04:23;97035.84;;;16.33;46.25
56719;BME280;42597;40.636;0.278;2023-03-14T07:06:48;97041.78;;;16.99;50.86
56719;BME280;42597;40.636;0.278;2023-03-14T07:09:15;97046.16;;;15.81;44.29
56719;BME280;42597;40.636;0.278;2023-03-14T07:11:42;97079.31;;;15.97;44.42
56719;BME280;42597;40.636;0.278;2023-03-14T07:14:08;97074.41;;;16.42;48.31
56719;BME280;42597;40.636;0.278;2023-03-14T07:16:33;97071.63;;;16.27;45.88
56719;BME280;42597;40.636;0.278;2023-03-14T07:19:00;97076.72;;;15.60;50.78
56719;BME280;42597;40.636;0.278;2023-03-14T07:21:26;97094.13;;;15.41;44.69
56719;BME280;42597;40.636;0.278;2023-03-14T07:23:51;97090.38;;;15.63;41.24
56719;BME280;42597;40.636;0.278;2023-03-14T07:26:17;97062.53;;;15.91;46.73
56719;BME280;42597;40.636;0.278;2023-03-14T07:28:43;97041.28;;;16.33;48.00
56719;BME280;42597;40.636;0.278;2023-03-14T07:31:09;97101.41;;;15.77;45.34
56719;BME280;42597;40.636;0.278;2023-03-14T07:33:35;97094.53;;;16.05;50.17
56719;BME280;42597;40.636;0.278;2023-03-14T07:36:01;97147.06;;;14.31;43.10
56719;BME280;42597;40.636;0.278;2023-03-14T07:38:27;97115.44;;;15.31;50.36
56719;BME280;42597;40.636;0.278;2023-03-14T07:41:04;97127.13;;;15.87;52.89
56719;BME280;42597;40.636;0.278;2023-03-14T07:43:30;97117.00;;;15.88;43.97
56719;BME280;42597;40.636;0.278;2023-03-14T07:45:56;97148.81;;;15.21;43.84
56719;BME280;42597;40.636;0.278;2023-03-14T07:48:21;97148.25;;;17.56;48.66
56719;BME280;42597;40.636;0.278;2023-03-14T07:50:54;97172.22;;;16.50;52.09
56719;BME280;42597;40.636;0.278;2023-03-14T07:53:21;97193.59;;;16.38;45.73
56719;BME280;42597;40.636;0.278;2023-03-14T07:55:47;97211.78;;;14.82;44.39
56719;BME280;42597;40.636;0.278;2023-03-14T07:58:13;97212.19;;;15.22;44.92
56719;BME280;42597;40.636;0.278;2023-03-14T08:00:39;97181.88;;;16.30;45.41
56719;BME280;42597;40.636;0.278;2023-03-14T08:03:04;97183.09;;;15.74;50.80
56719;BME280;42597;40.636;0.278;2023-03-14T08:05:30;97190.16;;;15.38;53.97
56719;BME280;42597;40.636;0.278;2023-03-14T08:07:55;97200.03;;;15.53;50.07
56719;BME280;42597;40.636;0.278;2023-03-14T08:10:21;97216.66;;;15.00;42.17
56719;BME280;42597;40.636;0.278;2023-03-14T08:12:49;97198.47;;;14.44;42.44
56719;BME280;42597;40.636;0.278;2023-03-14T08:15:15;97224.44;;;13.85;43.06
56719;BME280;42597;40.636;0.278;2023-03-14T08:17:40;97225.94;;;14.99;46.27
56719;BME280;42597;40.636;0.278;2023-03-14T08:20:06;97212.09;;;15.52;42.23
56719;BME280;42597;40.636;0.278;2023-03-14T08:22:33;97226.25;;;14.56;42.28
56719;BME280;42597;40.636;0.278;2023-03-14T08:24:59;97237.22;;;14.67;41.89
56719;BME280;42597;40.636;0.278;2023-03-14T08:27:24;97227.03;;;14.57;45.60
56719;BME280;42597;40.636;0.278;2023-03-14T08:29:50;97240.75;;;16.38;50.63
56719;BME280;42597;40.636;0.278;2023-03-14T08:32:15;97247.72;;;15.36;46.05
56719;BME280;42597;40.636;0.278;2023-03-14T08:34:41;97250.50;;;15.40;41.19
56719;BME280;42597;40.636;0.278;2023-03-14T08:37:07;97277.53;;;16.07;46.54
56719;BME280;42597;40.636;0.278;2023-03-14T08:39:32;97277.66;;;14.69;41.43
56719;BME280;42597;40.636;0.278;2023-03-14T08:41:57;97277.13;;;15.61;42.41
56719;BME280;42597;40.636;0.278;2023-03-14T08:44:23;97298.56;;;15.25;49.97
56719;BME280;42597;40.636;0.278;2023-03-14T08:46:49;97300.50;;;15.24;43.44
56719;BME280;42597;40.636;0.278;2023-03-14T08:49:14;97267.38;;;16.66;52.12
56719;BME280;42597;40.636;0.278;2023-03-14T08:51:40;97252.94;;;16.62;41.15
56719;BME280;42597;40.636;0.278;2023-03-14T08:54:05;97267.56;;;15.37;40.50
56719;BME280;42597;40.636;0.278;2023-03-14T08:56:31;97279.78;;;15.94;40.73
56719;BME280;42597;40.636;0.278;2023-03-14T08:58:56;97319.25;;;15.70;39.15
56719;BME280;42597;40.636;0.278;2023-03-14T09:01:22;97254.78;;;16.37;50.29
56719;BME280;42597;40.636;0.278;2023-03-14T09:03:50;97314.81;;;15.96;39.51
56719;BME280;42597;40.636;0.278;2023-03-14T09:06:16;97271.97;;;17.57;44.02
56719;BME280;42597;40.636;0.278;2023-03-14T09:08:44;97257.09;;;15.42;39.18
56719;BME280;42597;40.636;0.278;2023-03-14T09:11:10;97293.81;;;15.96;38.17
56719;BME280;42597;40.636;0.278;2023-03-14T09:13:36;97277.44;;;15.93;37.36
56719;BME280;42597;40.636;0.278;2023-03-14T09:16:03;97285.13;;;15.84;38.10
56719;BME280;42597;40.636;0.278;2023-03-14T09:18:29;97299.84;;;15.75;37.60
56719;BME280;42597;40.636;0.278;2023-03-14T09:20:55;97300.72;;;15.87;37.95
56719;BME280;42597;40.636;0.278;2023-03-14T09:23:21;97296.03;;;15.80;39.20
56719;BME280;42597;40.636;0.278;2023-03-14T09:25:46;97297.84;;;16.13;37.41
56719;BME280;42597;40.636;0.278;2023-03-14T09:28:12;97306.06;;;15.72;37.46
56719;BME280;42597;40.636;0.278;2023-03-14T09:30:38;97318.13;;;16.19;38.15
56719;BME280;42597;40.636;0.278;2023-03-14T09:33:04;97326.63;;;17.60;48.08
56719;BME280;42597;40.636;0.278;2023-03-14T09:35:29;97344.00;;;15.95;38.63
56719;BME280;42597;40.636;0.278;2023-03-14T09:37:55;97332.34;;;17.09;41.33
56719;BME280;42597;40.636;0.278;2023-03-14T09:40:21;97350.47;;;16.76;38.63
56719;BME280;42597;40.636;0.278;2023-03-14T09:42:50;97361.34;;;17.49;44.40
56719;BME280;42597;40.636;0.278;2023-03-14T09:45:38;97362.44;;;16.57;37.05
56719;BME280;42597;40.636;0.278;2023-03-14T09:48:08;97346.53;;;17.64;44.65
56719;BME280;42597;40.636;0.278;2023-03-14T09:50:40;97320.38;;;17.63;47.67
56719;BME280;42597;40.636;0.278;2023-03-14T09:53:17;97350.72;;;15.30;37.26
56719;BME280;42597;40.636;0.278;2023-03-14T09:55:45;97332.19;;;17.82;49.03
56719;BME280;42597;40.636;0.278;2023-03-14T09:58:16;97363.63;;;16.63;36.52
56719;BME280;42597;40.636;0.278;2023-03-14T10:00:43;97351.00;;;17.03;45.85
56719;BME280;42597;40.636;0.278;2023-03-14T10:05:38;97355.50;;;16.70;37.95
56719;BME280;42597;40.636;0.278;2023-03-14T10:08:05;97376.63;;;15.85;36.20
56719;BME280;42597;40.636;0.278;2023-03-14T10:10:33;97350.88;;;16.23;36.80
56719;BME280;42597;40.636;0.278;2023-03-14T10:13:19;97348.38;;;17.17;37.39
56719;BME280;42597;40.636;0.278;2023-03-14T10:16:01;97350.81;;;17.51;42.59
56719;BME280;42597;40.636;0.278;2023-03-14T10:18:29;97349.63;;;16.13;35.48
56719;BME280;42597;40.636;0.278;2023-03-14T10:21:28;97355.59;;;16.29;35.64
56719;BME280;42597;40.636;0.278;2023-03-14T10:23:54;97345.31;;;17.37;41.22
56719;BME280;42597;40.636;0.278;2023-03-14T10:26:28;97357.56;;;18.29;45.58
56719;BME280;42597;40.636;0.278;2023-03-14T10:29:11;97357.41;;;17.43;43.52
56719;BME280;42597;40.636;0.278;2023-03-14T10:32:10;97348.59;;;18.32;44.36
56719;BME280;42597;40.636;0.278;2023-03-14T10:34:42;97364.88;;;17.53;36.64
56719;BME280;42597;40.636;0.278;2023-03-14T10:37:17;97356.19;;;17.26;36.75
56719;BME280;42597;40.636;0.278;2023-03-14T10:39:49;97338.31;;;17.50;44.16
56719;BME280;42597;40.636;0.278;2023-03-14T10:42:25;97343.91;;;18.14;46.06
56719;BME280;42597;40.636;0.278;2023-03-14T10:44:57;97349.28;;;17.64;35.33
56719;BME280;42597;40.636;0.278;2023-03-14T10:47:26;97355.75;;;17.20;34.62
56719;BME280;42597;40.636;0.278;2023-03-14T10:49:54;97356.41;;;18.19;45.74
56719;BME280;42597;40.636;0.278;2023-03-14T10:54:59;97373.72;;;17.21;34.63
56719;BME280;42597;40.636;0.278;2023-03-14T10:57:26;97375.53;;;16.89;34.03
56719;BME280;42597;40.636;0.278;2023-03-14T10:59:53;97378.03;;;17.22;36.89
56719;BME280;42597;40.636;0.278;2023-03-14T11:02:47;97365.66;;;17.57;33.85
56719;BME280;42597;40.636;0.278;2023-03-14T11:07:56;97366.59;;;16.99;33.83
56719;BME280;42597;40.636;0.278;2023-03-14T11:10:37;97356.50;;;17.07;35.06
56719;BME280;42597;40.636;0.278;2023-03-14T11:13:25;97367.19;;;17.51;37.15
56719;BME280;42597;40.636;0.278;2023-03-14T11:26:36;97363.31;;;17.59;32.99
56719;BME280;42597;40.636;0.278;2023-03-14T11:30:01;97366.47;;;17.68;35.89
56719;BME280;42597;40.636;0.278;2023-03-14T11:32:13;97374.38;;;18.02;36.30
56719;BME280;42597;40.636;0.278;2023-03-14T11:34:54;97376.72;;;18.07;37.87
56719;BME280;42597;40.636;0.278;2023-03-14T11:37:40;97365.31;;;17.69;35.30
56719;BME280;42597;40.636;0.278;2023-03-14T11:42:42;97373.56;;;17.91;38.56
56719;BME280;42597;40.636;0.278;2023-03-14T11:45:27;97368.91;;;18.16;33.54
56719;BME280;42597;40.636;0.278;2023-03-14T11:48:40;97383.38;;;18.31;41.17
56719;BME280;42597;40.636;0.278;2023-03-14T11:51:22;97355.53;;;18.97;43.72
56719;BME280;42597;40.636;0.278;2023-03-14T11:53:59;97372.72;;;17.69;32.78
56719;BME280;42597;40.636;0.278;2023-03-14T11:56:34;97365.75;;;17.93;34.64
56719;BME280;42597;40.636;0.278;2023-03-14T11:59:06;97382.06;;;17.64;42.83
56719;BME280;42597;40.636;0.278;2023-03-14T12:01:59;97336.09;;;17.95;33.88
56719;BME280;42597;40.636;0.278;2023-03-14T12:04:31;97351.72;;;18.19;34.94
56719;BME280;42597;40.636;0.278;2023-03-14T12:07:05;97377.91;;;18.35;34.10
56719;BME280;42597;40.636;0.278;2023-03-14T12:09:34;97361.88;;;18.22;42.72
56719;BME280;42597;40.636;0.278;2023-03-14T12:12:03;97353.16;;;17.49;35.39
56719;BME280;42597;40.636;0.278;2023-03-14T12:14:32;97354.84;;;18.29;35.00
56719;BME280;42597;40.636;0.278;2023-03-14T12:19:31;97326.63;;;18.96;42.86
56719;BME280;42597;40.636;0.278;2023-03-14T12:22:01;97337.25;;;18.37;34.26
56719;BME280;42597;40.636;0.278;2023-03-14T12:24:35;97329.41;;;18.60;34.50
56719;BME280;42597;40.636;0.278;2023-03-14T12:27:04;97321.09;;;19.14;42.97
56719;BME280;42597;40.636;0.278;2023-03-14T12:29:31;97329.00;;;18.87;42.51
56719;BME280;42597;40.636;0.278;2023-03-14T12:44:44;97322.78;;;18.40;33.26
56719;BME280;42597;40.636;0.278;2023-03-14T12:49:52;97327.41;;;18.93;42.31
56719;BME280;42597;40.636;0.278;2023-03-14T12:58:16;97303.03;;;19.20;36.40
56719;BME280;42597;40.636;0.278;2023-03-14T13:00:44;97311.03;;;18.68;37.53
56719;BME280;42597;40.636;0.278;2023-03-14T13:05:58;97281.72;;;19.56;42.01
56719;BME280;42597;40.636;0.278;2023-03-14T13:08:43;97302.47;;;18.41;31.36
56719;BME280;42597;40.636;0.278;2023-03-14T13:11:18;97291.88;;;18.79;33.60
56719;BME280;42597;40.636;0.278;2023-03-14T13:13:52;97299.34;;;18.39;30.28
56719;BME280;42597;40.636;0.278;2023-03-14T13:16:22;97285.84;;;19.16;42.47
56719;BME280;42597;40.636;0.278;2023-03-14T13:18:49;97300.84;;;18.68;34.69
56719;BME280;42597;40.636;0.278;2023-03-14T13:21:21;97280.16;;;19.55;41.71
56719;BME280;42597;40.636;0.278;2023-03-14T13:24:06;97285.25;;;18.62;36.43
56719;BME280;42597;40.636;0.278;2023-03-14T13:26:42;97278.50;;;18.95;40.62
56719;BME280;42597;40.636;0.278;2023-03-14T13:29:29;97293.28;;;19.12;36.84
56719;BME280;42597;40.636;0.278;2023-03-14T13:32:01;97283.94;;;19.06;34.35
56719;BME280;42597;40.636;0.278;2023-03-14T13:34:31;97278.25;;;18.50;31.47
56719;BME280;42597;40.636;0.278;2023-03-14T13:36:57;97263.38;;;19.46;42.27
56719;BME280;42597;40.636;0.278;2023-03-14T13:39:25;97291.59;;;18.05;33.15
56719;BME280;42597;40.636;0.278;2023-03-14T13:41:52;97283.66;;;18.61;31.54
56719;BME280;42597;40.636;0.278;2023-03-14T13:44:29;97263.81;;;18.32;37.65
56719;BME280;42597;40.636;0.278;2023-03-14T13:47:03;97250.03;;;18.74;35.29
56719;BME280;42597;40.636;0.278;2023-03-14T13:49:31;97270.31;;;18.88;37.04
56719;BME280;42597;40.636;0.278;2023-03-14T13:52:00;97280.50;;;19.64;38.19
56719;BME280;42597;40.636;0.278;2023-03-14T13:54:27;97269.41;;;19.19;39.71
56719;BME280;42597;40.636;0.278;2023-03-14T13:57:00;97244.97;;;19.46;39.44
56719;BME280;42597;40.636;0.278;2023-03-14T13:59:31;97227.63;;;20.12;40.80
56719;BME280;42597;40.636;0.278;2023-03-14T14:02:24;97253.47;;;18.93;32.75
56719;BME280;42597;40.636;0.278;2023-03-14T14:04:51;97242.81;;;19.13;33.98
56719;BME280;42597;40.636;0.278;2023-03-14T14:07:17;97231.13;;;19.05;38.30